Rockaway Beach, Oregon
Current Conditions -  °F | °C
As of 11:15 AM on Saturday 25 Oct 2014 (Local Time) from KTMK Reporting Station
Light Rain Light Rain  
Wind Chill: 61°   Ceiling: 6000
Heat Index: 61°   Visibility: 10mi
Dew Point: 50°   Wind: 23mph
Humidity: 68%   Direction: 120°ESE
Pressure: 29.29"   Gusts: 37mph
Location:  45.61°N, 123.94°W
Report Text: KTMK 251815Z AUTO 12020G32KT 10SM -RA OVC060 16/10 A2929 RMK AO2
Loading
Personal Weather Stations






























Interactive Weather Map
Tropical Storm Tracking
New forecast layout! Learn more

10-Day Weather Forecast

Advertisements
Track Severe Weather on mobile